Price & Import Data for Rain gear- HS Code 85015210 - GeoSquare India
          85015210 [X]     

Rain gear - Price & Import data search results

Here is the listing from daily list of import records released by government of India for the keyword `Rain gear` under Harmonized System (HS) code 85015210 .

As per our records it was last imported on 02 Nov 2016 at under HS code 85015210 with quantity 1 as SEW-DRE80M4/FI/DH(GEAR MOTOR PARTS)(ACTUALUSER) from GERMANY at the price of Rs.12704.92

The items with the keyword `Rain gear` is commonly imported under the name like SEW-AQA100/4(GEAR MOTOR PARTS)(ACTUAL USER), SEWL-SL2-P050M-010-T-B-AVX0-490-00(GEAR MOTOR PARTS)(ACTUAL USER), SEW-EDRE160S4/FG/3GD/TF/AL/C(GEAR MOTOR PARTS)(ACTUAL USER).

The average import price of items with keyword `Rain gear` is Indian Rupees 0.


Date HS Code Description Origin Country Port of Discharge Unit Quantity Value (INR) Per Unit (INR)
2016-11-02 85015210 SEW-DRE80M4/FI/DH(GEAR MOTOR PARTS)(ACTUALUSER) GERMANY Chennai Air Cargo PCS 1 Rs.12704.92 Rs.12704.92
2016-10-03 85015210 SEW-EDRE132S4/FG/3GD/KCC/TF/AL(GEAR MOTOR PARTS)(ACTUAL USER) GERMANY Chennai Air Cargo PCS 1 Rs.41304.20 Rs.41304.2
2016-10-03 85015210 SEW-EDRE160S4/FG/3GD/TF/AL/C(GEAR MOTOR PARTS)(ACTUAL USER) GERMANY Chennai Air Cargo PCS 1 Rs.59258.46 Rs.59258.46
2016-10-03 85015210 SEWL-SL2-P050M-010-T-B-AVX0-490-00(GEAR MOTOR PARTS)(ACTUAL USER) GERMANY Chennai Air Cargo PCS 1 Rs.54628.55 Rs.54628.55
2016-09-26 85015210 SEW-AQA100/4(GEAR MOTOR PARTS)(ACTUAL USER) GERMANY Chennai Air Cargo PCS 1 Rs.14348.41 Rs.14348.41
2016-09-26 85015210 SEW - DRN80M4/FG/MM07(GEAR MOTOR PARTS)(ACTUAL USER) GERMANY Chennai Air Cargo PCS 1 Rs.37135.34 Rs.37135.34
2016-09-26 85015210 MOTOR - DFV160M12/2BM/HR/TF/300MM (FOR GEAR ENGINE)(ACTUAL USER) CHINA Chennai Air Cargo PCS 1 Rs.163266.18 Rs.163266.18
2016-09-26 85015210 SEW - DRN80M4/FG/MM07(GEAR MOTOR PARTS)(ACTUAL USER) GERMANY Chennai Air Cargo PCS 1 Rs.37135.34 Rs.37135.34
2016-09-26 85015210 MOTOR - DV100L8 240/415/1.1KW/50HZ (FOR GEAR ENGINE)(ACTUAL USER) CHINA Chennai Air Cargo PCS 1 Rs.20478.20 Rs.20478.2
2016-09-26 85015210 SEW - DRS100M4BE2HR/FI/TF(GEAR MOTOR PARTS)(ACTUAL USER) (3 PCS @ EUR 372.73 / PCS) GERMANY Chennai Sea PCS 3 Rs.86700.43 Rs.28900.14
2016-09-26 85015210 SEW-EDRS80S4/FG/2GD/KCC/AL(GEAR MOTOR PARTS)(ACTUAL USER) GERMANY Chennai Air Cargo PCS 1 Rs.14753.92 Rs.14753.92
2016-08-30 85015210 SEW-KF87/R CMPZ71L/BY/KY/AK1H/SB1(FOR GEAR ENGINE)(ACTUAL USER) GERMANY Chennai Air Cargo PCS 1 Rs.154840.54 Rs.154840.54
2016-08-30 85015210 SEW-PSKC222 CMP50S/BP/KY/AK0H/SB1(FOR GEAR ENGINE)(ACTUAL USER) GERMANY Chennai Air Cargo PCS 2 Rs.154247.94 Rs.77123.97
2016-08-30 85015210 SEW-CD100L1-4/II2G(FOR GEAR ENGINE)(ACTUAL USER) GERMANY Chennai Air Cargo PCS 1 Rs.85122.98 Rs.85122.98
2016-08-30 85015210 SEW-EDRE132M4/FG/3GD/KCC/AL(FOR GEAR ENGINE)(ACTUAL USER) GERMANY Chennai Air Cargo PCS 1 Rs.36558.35 Rs.36558.35
2016-08-27 85015210 SEW-KAF87 DRS180S8/4(FOR GEAR ENGINE)(ACTUAL USER) GERMANY Chennai Air Cargo PCS 2 Rs.594932.63 Rs.297466.32
2016-08-27 85015210 SEW-DRE90L4/FI(FOR GEAR ENGINE)(ACTUAL USER) GERMANY Chennai Air Cargo PCS 1 Rs.14726.68 Rs.14726.68
2016-08-27 85015210 SEW - Variable Speed GM Varimot DF16 DRS80S4 (GEAR MOTOR PARTS) GERMANY Bombay Air Cargo PCS 1 Rs.35237.15 Rs.35237.15
2016-08-27 85015210 SEW-CMP71S/BP/KY/AK1H/SB1(FOR GEAR ENGINE)(ACTUAL USER) GERMANY Chennai Air Cargo PCS 1 Rs.63704.58 Rs.63704.58
2016-08-09 85015210 SEW-ADAPTER -AR90(FOR GEAR ENGINE)(ACTUAL USER) GERMANY Chennai Air Cargo PCS 1 Rs.24701.55 Rs.24701.55